Terminal Aerodrome Forecast
Issued by NWS North Platte, NE

Home | Current Version | Previous Version | Graphics & Text | Print | Product List | Glossary On
Versions: 1 2 3 4 5 6 7 8 9 10 11 12 13 14 15 16
000
FTUS43 KLBF 280500
TAFVTN
TAF
KVTN 280520Z 2806/0106 18009KT P6SM OVC035
      TEMPO 2809/2813 P6SM OVC025
     FM281800 22010KT P6SM SCT050
     FM282100 25005KT P6SM SCT050
     FM010000 30005KT P6SM SKC=

USA.gov is the U.S. government's official web portal to all federal, state and local government web resources and services.